createdAt,value
2019-01-11T00:01:53.387Z,10.53
2019-01-11T00:04:27.256Z,7.50
2019-01-11T00:07:00.685Z,14.00
2019-01-11T00:09:34.081Z,6.93
2019-01-11T00:12:07.499Z,9.90
2019-01-11T00:14:41.106Z,11.57
2019-01-11T00:17:14.534Z,8.03
2019-01-11T00:19:48.029Z,6.57
2019-01-11T00:22:21.562Z,4.83
2019-01-11T00:24:55.717Z,6.37
2019-01-11T00:27:29.420Z,6.30
2019-01-11T00:30:05.000Z,10.30
2019-01-11T00:32:38.622Z,11.30
2019-01-11T00:35:12.342Z,5.50
2019-01-11T00:37:45.779Z,7.50
2019-01-11T00:40:19.224Z,5.17
2019-01-11T00:42:52.814Z,10.38
2019-01-11T00:45:26.335Z,6.30
2019-01-11T00:47:59.903Z,7.47
2019-01-11T00:50:33.363Z,6.33
2019-01-11T00:53:06.990Z,6.33
2019-01-11T00:55:40.486Z,17.30
2019-01-11T00:58:14.020Z,6.20
2019-01-11T01:00:48.113Z,9.27
2019-01-11T01:03:21.683Z,8.63
2019-01-11T01:05:56.891Z,6.00
2019-01-11T01:08:30.667Z,7.13
2019-01-11T01:11:04.462Z,5.80
2019-01-11T01:13:40.282Z,11.97
2019-01-11T01:16:13.881Z,7.30
2019-01-11T01:18:47.564Z,5.53
2019-01-11T01:21:22.467Z,9.80
2019-01-11T01:23:56.012Z,6.13
2019-01-11T01:26:29.563Z,5.37
2019-01-11T01:29:03.135Z,4.90
2019-01-11T01:31:37.307Z,4.30
2019-01-11T01:34:10.923Z,4.27
2019-01-11T01:36:44.650Z,8.73
2019-01-11T01:39:18.208Z,6.13
2019-01-11T01:41:51.712Z,5.57
2019-01-11T01:44:25.274Z,6.57
2019-01-11T01:46:58.856Z,7.20
2019-01-11T01:49:32.486Z,4.80
2019-01-11T01:52:06.039Z,9.63
2019-01-11T01:54:40.786Z,5.20
2019-01-11T01:57:14.217Z,3.33
2019-01-11T01:59:47.767Z,4.80
2019-01-11T02:02:21.213Z,4.90
2019-01-11T02:04:54.659Z,4.70
2019-01-11T02:07:28.218Z,4.27
2019-01-11T02:10:01.667Z,3.87
2019-01-11T02:12:35.118Z,3.97
2019-01-11T02:15:09.051Z,5.30
2019-01-11T02:17:43.908Z,6.20
2019-01-11T02:20:19.571Z,3.57
2019-01-11T02:22:53.119Z,4.03
2019-01-11T02:25:26.881Z,3.80
2019-01-11T02:28:00.180Z,4.70
2019-01-11T02:30:34.342Z,3.13
2019-01-11T02:33:07.708Z,3.57
2019-01-11T02:35:42.600Z,3.57
2019-01-11T02:38:14.163Z,3.40
2019-01-11T02:40:47.518Z,3.20
2019-01-11T02:43:21.049Z,3.53
2019-01-11T02:45:50.836Z,3.70
2019-01-11T02:48:21.760Z,2.83
2019-01-11T02:50:55.275Z,2.80
2019-01-11T02:53:28.771Z,2.70
2019-01-11T02:56:02.154Z,3.50
2019-01-11T02:58:35.636Z,2.63
2019-01-11T03:01:09.029Z,2.80
2019-01-11T03:03:42.545Z,2.53
2019-01-11T03:06:16.032Z,2.93
2019-01-11T03:08:49.538Z,4.87
2019-01-11T03:11:23.108Z,2.97
2019-01-11T03:13:56.537Z,3.40
2019-01-11T03:16:29.940Z,3.55
2019-01-11T03:19:03.690Z,2.30
2019-01-11T03:21:37.193Z,2.40
2019-01-11T03:24:10.701Z,3.03
2019-01-11T03:26:44.125Z,3.27
2019-01-11T03:29:17.565Z,2.40
2019-01-11T03:31:50.937Z,8.53
2019-01-11T03:34:24.374Z,3.67
2019-01-11T03:36:57.805Z,2.27
2019-01-11T03:39:31.506Z,3.08
2019-01-11T03:42:14.196Z,2.83
2019-01-11T03:44:47.712Z,2.07
2019-01-11T03:47:21.098Z,2.60
2019-01-11T03:49:54.876Z,2.30
2019-01-11T03:52:28.686Z,2.67
2019-01-11T03:55:02.036Z,2.57
2019-01-11T03:57:35.468Z,2.67
2019-01-11T04:00:10.582Z,2.30
2019-01-11T04:02:43.971Z,1.90
2019-01-11T04:05:17.356Z,1.70
2019-01-11T04:07:50.986Z,1.60
2019-01-11T04:10:28.039Z,1.63
2019-01-11T04:13:01.565Z,1.93
2019-01-11T04:15:36.067Z,2.00
2019-01-11T04:18:39.514Z,1.70
2019-01-11T04:21:12.884Z,1.73
2019-01-11T04:23:46.382Z,2.63
2019-01-11T04:26:19.781Z,3.30
2019-01-11T04:28:53.282Z,3.10
2019-01-11T04:31:26.692Z,3.07
2019-01-11T04:34:00.325Z,3.47
2019-01-11T04:36:33.683Z,4.67
2019-01-11T04:39:08.646Z,2.53
2019-01-11T04:41:42.216Z,2.80
2019-01-11T04:44:15.800Z,3.08
2019-01-11T04:46:49.180Z,3.70
2019-01-11T04:49:22.580Z,3.47
2019-01-11T04:51:55.990Z,4.03
2019-01-11T04:54:29.470Z,2.80
2019-01-11T04:57:02.843Z,3.05
2019-01-11T04:59:36.231Z,2.90
2019-01-11T05:02:09.644Z,3.03
2019-01-11T05:04:43.096Z,3.13
2019-01-11T05:07:16.531Z,4.53
2019-01-11T05:09:50.027Z,3.00
2019-01-11T05:12:23.449Z,2.67
2019-01-11T05:14:56.958Z,2.77
2019-01-11T05:17:30.351Z,3.00
2019-01-11T05:20:04.043Z,1.93
2019-01-11T05:22:39.502Z,1.60
2019-01-11T05:25:13.181Z,1.80
2019-01-11T05:27:46.575Z,2.03
2019-01-11T05:30:21.983Z,1.53
2019-01-11T05:32:55.339Z,1.63
2019-01-11T05:35:28.847Z,1.63
2019-01-11T05:38:02.223Z,1.67
2019-01-11T05:40:35.663Z,2.00
2019-01-11T05:43:09.310Z,1.30
2019-01-11T05:45:42.566Z,1.40
2019-01-11T05:48:15.916Z,1.33
2019-01-11T05:50:49.273Z,1.30
2019-01-11T05:53:22.595Z,1.50
2019-01-11T05:55:56.783Z,1.50
2019-01-11T05:58:35.303Z,1.20
2019-01-11T06:01:08.880Z,1.33
2019-01-11T06:03:42.259Z,2.20
2019-01-11T06:06:18.755Z,1.30
2019-01-11T06:08:52.599Z,1.70
2019-01-11T06:11:26.500Z,2.00
2019-01-11T06:14:00.309Z,2.60
2019-01-11T06:16:34.129Z,3.13
2019-01-11T06:19:08.025Z,3.17
2019-01-11T06:21:41.831Z,2.70
2019-01-11T06:24:15.714Z,3.00
2019-01-11T06:26:49.200Z,2.42
2019-01-11T06:29:22.581Z,1.87
2019-01-11T06:31:56.246Z,1.40
2019-01-11T06:34:29.722Z,1.50
2019-01-11T06:37:03.203Z,1.50
2019-01-11T06:39:36.714Z,1.53
2019-01-11T06:42:34.296Z,1.20
2019-01-11T06:45:08.791Z,3.53
2019-01-11T06:47:42.455Z,39.80
2019-01-11T06:50:17.090Z,70.00
2019-01-11T06:52:50.488Z,43.27
2019-01-11T06:55:23.935Z,29.70
2019-01-11T06:57:57.390Z,12.37
2019-01-11T07:00:30.778Z,8.80
2019-01-11T07:03:04.212Z,4.97
2019-01-11T07:05:39.392Z,4.67
2019-01-11T07:08:12.814Z,4.80
2019-01-11T07:10:46.199Z,4.87
2019-01-11T07:13:19.782Z,3.40
2019-01-11T07:15:54.286Z,3.20
2019-01-11T07:18:27.739Z,4.10
2019-01-11T07:21:01.164Z,3.77
2019-01-11T07:23:34.583Z,4.33
2019-01-11T07:26:07.980Z,3.40
2019-01-11T07:28:41.411Z,3.67
2019-01-11T07:31:21.007Z,4.00
2019-01-11T07:33:54.429Z,4.10
2019-01-11T07:36:31.973Z,3.60
2019-01-11T07:39:06.736Z,3.00
2019-01-11T07:41:41.356Z,4.20
2019-01-11T07:44:14.744Z,3.17
2019-01-11T07:46:48.643Z,3.00
2019-01-11T07:49:23.279Z,3.27
2019-01-11T07:51:57.607Z,3.07
2019-01-11T07:54:30.962Z,3.37
2019-01-11T07:57:04.363Z,3.43
2019-01-11T07:59:37.777Z,4.03
2019-01-11T08:02:11.187Z,3.30
2019-01-11T08:04:44.659Z,3.80
2019-01-11T08:07:18.069Z,3.27
2019-01-11T08:09:52.397Z,3.00
2019-01-11T08:12:25.787Z,2.70
2019-01-11T08:14:59.935Z,2.10
2019-01-11T08:17:33.262Z,1.80
2019-01-11T08:20:06.649Z,1.70
2019-01-11T08:22:43.686Z,1.90
2019-01-11T08:25:17.391Z,1.77
2019-01-11T08:27:50.819Z,1.67
2019-01-11T08:30:24.231Z,2.03
2019-01-11T08:32:58.773Z,1.40
2019-01-11T08:35:32.159Z,1.60
2019-01-11T08:38:05.622Z,1.73
2019-01-11T08:40:40.104Z,2.70
2019-01-11T08:43:13.571Z,1.93
2019-01-11T08:45:46.950Z,2.03
2019-01-11T08:48:20.404Z,2.20
2019-01-11T08:50:53.844Z,2.60
2019-01-11T08:53:27.259Z,2.30
2019-01-11T08:56:08.088Z,2.77
2019-01-11T08:58:36.916Z,2.40
2019-01-11T09:01:10.956Z,2.50
2019-01-11T09:03:44.213Z,2.60
2019-01-11T09:06:17.555Z,7.63
2019-01-11T09:08:51.072Z,7.77
2019-01-11T09:11:26.832Z,8.07
2019-01-11T09:14:00.260Z,8.78
2019-01-11T09:16:33.600Z,4.30
2019-01-11T09:19:08.483Z,4.53
2019-01-11T09:21:43.484Z,3.20
2019-01-11T09:24:16.910Z,2.70
2019-01-11T09:26:51.550Z,2.10
2019-01-11T09:29:25.015Z,2.73
2019-01-11T09:31:58.405Z,2.40
2019-01-11T09:34:31.879Z,3.30
2019-01-11T09:37:05.293Z,2.70
2019-01-11T09:39:39.894Z,2.80
2019-01-11T09:42:13.263Z,3.87
2019-01-11T09:44:47.861Z,4.20
2019-01-11T09:47:21.277Z,3.87
2019-01-11T09:49:54.755Z,3.87
2019-01-11T09:52:28.167Z,3.87
2019-01-11T09:55:01.587Z,3.77
2019-01-11T09:57:35.034Z,4.40
2019-01-11T10:00:10.251Z,4.00
2019-01-11T10:02:56.511Z,2.93
2019-01-11T10:05:29.936Z,4.70
2019-01-11T10:08:03.393Z,5.33
2019-01-11T10:10:37.574Z,6.60
2019-01-11T10:13:11.160Z,3.70
2019-01-11T10:15:45.827Z,4.00
2019-01-11T10:18:19.395Z,4.90
2019-01-11T10:20:52.907Z,6.92
2019-01-11T10:23:26.436Z,3.80
2019-01-11T10:26:00.976Z,4.53
2019-01-11T10:28:34.447Z,13.33
2019-01-11T10:31:08.071Z,5.23
2019-01-11T10:33:41.486Z,5.70
2019-01-11T10:36:14.939Z,5.60
2019-01-11T10:38:48.311Z,7.10
2019-01-11T10:41:22.902Z,5.50
2019-01-11T10:43:56.593Z,4.80
2019-01-11T10:46:37.973Z,5.80
2019-01-11T10:49:12.419Z,18.03
2019-01-11T10:51:46.511Z,5.80
2019-01-11T10:54:30.294Z,8.20
2019-01-11T10:57:03.702Z,8.95
2019-01-11T10:59:37.074Z,9.10
2019-01-11T11:02:10.247Z,7.67
2019-01-11T11:04:43.631Z,7.77
2019-01-11T11:07:17.059Z,13.30
2019-01-11T11:09:50.452Z,19.03
2019-01-11T11:12:23.839Z,11.67
2019-01-11T11:14:57.234Z,25.73
2019-01-11T11:17:32.497Z,9.60
2019-01-11T11:20:06.631Z,13.87
2019-01-11T11:22:40.080Z,17.77
2019-01-11T11:25:15.383Z,9.40
2019-01-11T11:27:48.832Z,20.33
2019-01-11T11:30:23.375Z,16.10
2019-01-11T11:33:01.051Z,19.23
2019-01-11T11:35:37.003Z,20.63
2019-01-11T11:38:10.651Z,15.37
2019-01-11T11:40:44.066Z,12.63
2019-01-11T11:43:24.051Z,16.90
2019-01-11T11:45:52.807Z,15.47
2019-01-11T11:48:26.427Z,18.63
2019-01-11T11:51:07.950Z,16.60
2019-01-11T11:53:53.769Z,23.07
2019-01-11T11:56:18.327Z,14.57
2019-01-11T11:58:51.934Z,17.87
2019-01-11T12:01:30.121Z,26.10
2019-01-11T12:04:03.821Z,14.67
2019-01-11T12:06:37.320Z,16.50
2019-01-11T12:09:14.975Z,15.20
2019-01-11T12:11:48.684Z,17.67
2019-01-11T12:14:22.275Z,29.17
2019-01-11T12:16:55.714Z,14.57
2019-01-11T12:19:32.092Z,15.73
2019-01-11T12:22:05.558Z,23.67
2019-01-11T12:24:38.939Z,43.43
2019-01-11T12:27:13.598Z,17.57
2019-01-11T12:29:47.060Z,20.70
2019-01-11T12:32:50.647Z,12.63
2019-01-11T12:35:37.620Z,12.00
2019-01-11T12:38:43.356Z,26.00
2019-01-11T12:41:30.539Z,26.13
2019-01-11T12:44:17.062Z,59.97
2019-01-11T12:47:12.999Z,56.30
2019-01-11T12:49:49.562Z,24.87
2019-01-11T12:52:23.380Z,14.83
2019-01-11T12:54:56.836Z,14.50
2019-01-11T12:57:30.614Z,15.98
2019-01-11T13:00:04.174Z,16.23
2019-01-11T13:02:37.638Z,12.53
2019-01-11T13:07:46.015Z,14.80
2019-01-11T13:10:20.324Z,15.77
2019-01-11T13:12:54.455Z,19.33
2019-01-11T13:15:28.626Z,12.93
2019-01-11T13:18:02.299Z,46.27
2019-01-11T13:20:35.838Z,18.07
2019-01-11T13:23:09.748Z,25.13
2019-01-11T13:25:43.339Z,13.77
2019-01-11T13:28:17.424Z,23.37
2019-01-11T13:30:50.991Z,12.63
2019-01-11T13:33:24.999Z,14.40
2019-01-11T13:41:04.569Z,13.80
2019-01-11T13:43:40.760Z,8.87
2019-01-11T13:46:15.359Z,7.77
2019-01-11T13:48:48.769Z,9.83
2019-01-11T13:51:22.282Z,7.50
2019-01-11T13:53:57.072Z,7.25
2019-01-11T13:56:33.350Z,7.77
2019-01-11T14:00:32.091Z,3.27
2019-01-11T14:02:10.405Z,6.97
2019-01-11T14:04:42.888Z,9.63
2019-01-11T14:07:30.072Z,5.40
2019-01-11T14:10:03.676Z,16.80
2019-01-11T14:12:37.045Z,6.20
2019-01-11T14:15:10.899Z,6.90
2019-01-11T14:17:44.295Z,12.47
2019-01-11T14:20:17.729Z,4.80
2019-01-11T14:22:51.159Z,4.80
2019-01-11T14:25:25.682Z,8.97
2019-01-11T14:28:01.558Z,12.90
2019-01-11T14:30:35.042Z,5.67
2019-01-11T14:33:08.946Z,5.07
2019-01-11T14:35:42.587Z,22.50
2019-01-11T14:38:16.096Z,10.37
2019-01-11T14:40:49.580Z,4.23
2019-01-11T14:45:54.146Z,5.40
2019-01-11T14:48:25.857Z,8.27
2019-01-11T14:50:58.844Z,4.23
2019-01-11T14:53:32.242Z,10.13
2019-01-11T14:56:07.471Z,5.77
2019-01-11T14:58:42.655Z,3.93
2019-01-11T15:01:18.417Z,5.37
2019-01-11T15:03:51.847Z,7.37
2019-01-11T15:06:25.662Z,9.70
2019-01-11T15:08:59.436Z,8.83
2019-01-11T15:11:33.066Z,4.37
2019-01-11T15:14:09.841Z,3.93
2019-01-11T15:19:50.441Z,6.67
2019-01-11T15:22:29.824Z,11.03
2019-01-11T15:25:03.264Z,8.43
2019-01-11T15:27:36.649Z,6.80
2019-01-11T15:30:13.055Z,6.10
2019-01-11T15:32:47.339Z,4.60
2019-01-11T15:38:09.272Z,6.03
2019-01-11T15:40:42.678Z,7.97
2019-01-11T15:43:17.911Z,6.57
2019-01-11T15:45:53.660Z,4.00
2019-01-11T15:48:44.027Z,4.33
2019-01-11T15:51:17.914Z,6.20
2019-01-11T15:53:51.493Z,8.23
2019-01-11T15:56:28.483Z,6.85
2019-01-11T15:59:04.450Z,5.93
2019-01-11T16:01:38.985Z,5.20
2019-01-11T16:04:12.499Z,5.30
2019-01-11T16:06:47.577Z,6.07
2019-01-11T16:09:59.566Z,13.90
2019-01-11T16:12:47.467Z,8.50
2019-01-11T16:15:59.498Z,5.00
2019-01-11T16:18:37.748Z,5.40
2019-01-11T16:21:12.282Z,4.80
2019-01-11T16:23:46.885Z,4.80
2019-01-11T16:26:21.499Z,3.60
2019-01-11T16:28:55.800Z,3.77
2019-01-11T16:31:30.279Z,4.23
2019-01-11T16:34:03.848Z,6.67
2019-01-11T16:36:37.330Z,6.83
2019-01-11T16:39:15.395Z,3.10
2019-01-11T16:41:51.493Z,3.30
2019-01-11T16:44:25.316Z,6.83
2019-01-11T16:46:58.754Z,5.17
2019-01-11T16:49:34.472Z,7.37
2019-01-11T16:52:15.267Z,4.05
2019-01-11T16:54:44.991Z,9.40
2019-01-11T16:57:20.492Z,7.70
2019-01-11T16:59:54.451Z,5.80
2019-01-11T17:02:36.506Z,10.47
2019-01-11T17:05:07.083Z,5.07
2019-01-11T17:07:40.693Z,6.00
2019-01-11T17:10:16.844Z,3.90
2019-01-11T17:12:50.508Z,3.70
2019-01-11T17:15:23.607Z,4.07
2019-01-11T17:17:57.065Z,6.03
2019-01-11T17:20:33.170Z,5.00
2019-01-11T17:23:07.257Z,3.33
2019-01-11T17:30:43.515Z,4.57
2019-01-11T17:33:19.356Z,5.67
2019-01-11T17:35:52.840Z,3.97
2019-01-11T17:38:27.305Z,7.67
2019-01-11T17:41:00.872Z,4.70
2019-01-11T17:43:36.470Z,4.23
2019-01-11T17:46:10.761Z,7.63
2019-01-11T17:48:45.399Z,4.80
2019-01-11T17:51:19.900Z,3.20
2019-01-11T17:53:53.389Z,4.20
2019-01-11T17:56:27.623Z,4.40
2019-01-11T17:59:02.756Z,3.13
2019-01-11T18:01:36.364Z,7.07
2019-01-11T18:04:07.823Z,6.07
2019-01-11T18:06:41.366Z,4.10
2019-01-11T18:09:14.979Z,5.47
2019-01-11T18:11:48.558Z,9.20
2019-01-11T18:14:22.213Z,5.70
2019-01-11T18:16:55.781Z,3.57
2019-01-11T18:19:32.082Z,4.80
2019-01-11T18:22:05.672Z,6.30
2019-01-11T18:24:39.272Z,4.77
2019-01-11T18:27:12.733Z,10.93
2019-01-11T18:29:46.337Z,5.30
2019-01-11T18:32:21.461Z,11.33
2019-01-11T18:34:55.316Z,4.53
2019-01-11T18:37:28.788Z,3.40
2019-01-11T18:40:02.281Z,5.23
2019-01-11T18:42:35.834Z,6.30
2019-01-11T18:45:09.793Z,8.67
2019-01-11T18:48:01.076Z,6.33
2019-01-11T18:50:36.988Z,9.23
2019-01-11T18:53:19.998Z,4.70
2019-01-11T18:55:53.528Z,6.93
2019-01-11T18:58:27.172Z,4.20
2019-01-11T19:01:00.674Z,6.63
2019-01-11T19:03:34.468Z,6.10
2019-01-11T19:06:14.990Z,5.58
2019-01-11T19:11:18.933Z,4.50
2019-01-11T19:14:04.452Z,5.77
2019-01-11T19:16:38.232Z,6.78
2019-01-11T19:19:11.671Z,5.90
2019-01-11T19:21:45.192Z,6.13
2019-01-11T19:27:35.792Z,5.53
2019-01-11T19:30:12.786Z,5.37
2019-01-11T19:32:46.721Z,6.73
2019-01-11T19:35:20.143Z,6.87
2019-01-11T19:37:54.046Z,7.97
2019-01-11T19:40:27.609Z,8.60
2019-01-11T19:45:32.665Z,4.80
2019-01-11T19:48:07.145Z,4.67
2019-01-11T19:50:40.764Z,11.60
2019-01-11T19:53:15.232Z,6.23
2019-01-11T19:55:49.488Z,3.60
2019-01-11T19:58:23.368Z,8.63
2019-01-11T20:03:30.550Z,4.63
2019-01-11T20:06:05.359Z,10.20
2019-01-11T20:08:39.100Z,17.47
2019-01-11T20:11:13.240Z,6.73
2019-01-11T20:13:47.037Z,4.30
2019-01-11T20:16:20.724Z,4.57
2019-01-11T20:18:56.019Z,6.27
2019-01-11T20:21:38.008Z,4.80
2019-01-11T20:24:11.590Z,5.43
2019-01-11T20:26:55.621Z,4.93
2019-01-11T20:29:29.487Z,5.63
2019-01-11T20:32:03.207Z,6.20
2019-01-11T20:34:46.494Z,5.20
2019-01-11T20:37:35.254Z,7.43
2019-01-11T20:40:16.077Z,7.93
2019-01-11T20:42:58.635Z,7.40
2019-01-11T20:45:35.991Z,8.15
2019-01-11T20:48:10.757Z,4.77
2019-01-11T20:50:44.372Z,5.07
2019-01-11T20:53:18.554Z,5.07
2019-01-11T20:55:56.643Z,5.65
2019-01-11T20:58:33.807Z,8.10
2019-01-11T21:01:08.637Z,8.93
2019-01-11T21:03:44.749Z,6.20
2019-01-11T21:06:18.420Z,7.03
2019-01-11T21:08:52.383Z,6.40
2019-01-11T21:11:25.982Z,4.70
2019-01-11T21:14:00.816Z,5.07
2019-01-11T21:16:34.396Z,4.77
2019-01-11T21:19:07.995Z,6.43
2019-01-11T21:21:41.736Z,6.07
2019-01-11T21:24:16.724Z,6.47
2019-01-11T21:26:50.651Z,5.50
2019-01-11T21:29:24.463Z,4.60
2019-01-11T21:32:00.128Z,5.00
2019-01-11T21:47:39.193Z,5.93
2019-01-11T21:50:16.207Z,4.47
2019-01-11T21:52:50.136Z,5.07
2019-01-11T21:55:42.391Z,6.83
2019-01-11T21:58:16.195Z,5.50
2019-01-11T22:00:54.052Z,5.93
2019-01-11T22:03:27.903Z,11.00
2019-01-11T22:06:01.536Z,5.50
2019-01-11T22:08:35.160Z,5.30
2019-01-11T22:11:08.903Z,13.53
2019-01-11T22:13:42.519Z,8.80
2019-01-11T22:16:16.476Z,7.23
2019-01-11T22:18:50.203Z,7.27
2019-01-11T22:21:25.312Z,8.50
2019-01-11T22:24:03.008Z,6.77
2019-01-11T22:26:38.207Z,7.40
2019-01-11T22:29:11.958Z,5.37
2019-01-11T22:31:45.876Z,5.90
2019-01-11T22:34:19.475Z,6.87
2019-01-11T22:36:53.145Z,7.97
2019-01-11T22:39:26.707Z,6.33
2019-01-11T22:42:00.484Z,9.67
2019-01-11T22:44:34.084Z,7.70
2019-01-11T22:47:07.896Z,10.10
2019-01-11T22:49:43.387Z,13.93
2019-01-11T22:52:18.559Z,6.80
2019-01-11T22:54:52.440Z,6.20
2019-01-11T22:57:26.280Z,11.17
2019-01-11T22:59:59.973Z,7.70
2019-01-11T23:02:45.890Z,7.87
2019-01-11T23:05:19.903Z,17.03
2019-01-11T23:07:57.052Z,9.63
2019-01-11T23:11:14.941Z,6.70
2019-01-11T23:13:48.605Z,8.63
2019-01-11T23:16:46.499Z,7.10
2019-01-11T23:19:20.230Z,15.20
2019-01-11T23:21:55.553Z,7.67
2019-01-11T23:24:29.211Z,8.33
2019-01-11T23:27:04.011Z,8.60
2019-01-11T23:29:37.556Z,8.17
2019-01-11T23:32:11.278Z,6.62
2019-01-11T23:34:44.942Z,8.97
2019-01-11T23:37:19.002Z,16.40
2019-01-11T23:39:52.735Z,13.57
2019-01-11T23:42:26.405Z,9.27
2019-01-11T23:44:59.983Z,7.23
2019-01-11T23:47:35.526Z,7.37
2019-01-11T23:50:11.748Z,6.83
2019-01-11T23:52:45.444Z,8.70
2019-01-11T23:55:20.218Z,8.43
2019-01-11T23:57:54.110Z,8.00
